Terminal Aerodrome Forecast
Issued by NWS New Orleans/Baton Rouge, LA

Home | Current Version | Previous Version | Text Only | Print | Product List | Glossary On
Versions: 1 2 3 4 5 6 7 8 9 10 11 12 13
497
FTUS44 KLIX 222341
TAFBTR
TAF
KBTR 222341Z 2300/2324 VRB03KT P6SM FEW035 BKN250
     FM231500 24004KT 6SM -SHRA VCTS SCT025 BKN035CB=

USA.gov is the U.S. government's official web portal to all federal, state and local government web resources and services.